sensor_id;sensor_type;location;lat;lon;timestamp;temperature;humidity
19906;DHT22;10115;50.906;4.438;2023-03-16T00:00:52;6.60;99.90
19906;DHT22;10115;50.906;4.438;2023-03-16T00:03:19;6.70;99.90
19906;DHT22;10115;50.906;4.438;2023-03-16T00:05:52;6.60;99.90
19906;DHT22;10115;50.906;4.438;2023-03-16T00:08:18;6.60;99.90
19906;DHT22;10115;50.906;4.438;2023-03-16T00:10:44;6.70;99.90
19906;DHT22;10115;50.906;4.438;2023-03-16T00:13:19;6.70;99.90
19906;DHT22;10115;50.906;4.438;2023-03-16T00:18:19;6.70;99.90
19906;DHT22;10115;50.906;4.438;2023-03-16T00:20:53;6.60;99.90
19906;DHT22;10115;50.906;4.438;2023-03-16T00:23:20;6.80;99.90
19906;DHT22;10115;50.906;4.438;2023-03-16T00:25:55;7.00;99.90
19906;DHT22;10115;50.906;4.438;2023-03-16T00:28:22;7.10;99.90
19906;DHT22;10115;50.906;4.438;2023-03-16T00:30:47;7.00;99.90
19906;DHT22;10115;50.906;4.438;2023-03-16T00:33:13;7.00;99.90
19906;DHT22;10115;50.906;4.438;2023-03-16T00:35:39;7.00;99.90
19906;DHT22;10115;50.906;4.438;2023-03-16T00:38:04;7.00;99.90
19906;DHT22;10115;50.906;4.438;2023-03-16T00:40:30;7.00;99.90
19906;DHT22;10115;50.906;4.438;2023-03-16T00:42:58;7.00;99.90
19906;DHT22;10115;50.906;4.438;2023-03-16T00:45:23;6.90;99.90
19906;DHT22;10115;50.906;4.438;2023-03-16T00:47:49;6.90;99.90
19906;DHT22;10115;50.906;4.438;2023-03-16T00:50:18;6.90;99.90
19906;DHT22;10115;50.906;4.438;2023-03-16T00:52:46;6.90;99.90
19906;DHT22;10115;50.906;4.438;2023-03-16T00:55:12;7.20;99.90
19906;DHT22;10115;50.906;4.438;2023-03-16T00:57:38;7.20;99.90
19906;DHT22;10115;50.906;4.438;2023-03-16T01:00:04;7.20;99.90
19906;DHT22;10115;50.906;4.438;2023-03-16T01:02:39;7.00;99.90
19906;DHT22;10115;50.906;4.438;2023-03-16T01:05:05;7.00;99.90
19906;DHT22;10115;50.906;4.438;2023-03-16T01:07:31;7.10;99.90
19906;DHT22;10115;50.906;4.438;2023-03-16T01:09:57;7.00;99.90
19906;DHT22;10115;50.906;4.438;2023-03-16T01:12:23;7.00;99.90
19906;DHT22;10115;50.906;4.438;2023-03-16T01:14:48;7.10;99.90
19906;DHT22;10115;50.906;4.438;2023-03-16T01:17:15;7.00;99.90
19906;DHT22;10115;50.906;4.438;2023-03-16T01:19:42;7.10;99.90
19906;DHT22;10115;50.906;4.438;2023-03-16T01:22:09;7.10;99.90
19906;DHT22;10115;50.906;4.438;2023-03-16T01:24:36;7.10;99.90
19906;DHT22;10115;50.906;4.438;2023-03-16T01:27:03;7.20;99.90
19906;DHT22;10115;50.906;4.438;2023-03-16T01:29:30;7.30;99.90
19906;DHT22;10115;50.906;4.438;2023-03-16T01:31:55;7.20;99.90
19906;DHT22;10115;50.906;4.438;2023-03-16T01:34:22;7.40;99.90
19906;DHT22;10115;50.906;4.438;2023-03-16T01:36:49;7.40;99.90
19906;DHT22;10115;50.906;4.438;2023-03-16T01:39:15;7.60;99.90
19906;DHT22;10115;50.906;4.438;2023-03-16T01:41:42;7.60;99.90
19906;DHT22;10115;50.906;4.438;2023-03-16T01:44:13;7.50;99.90
19906;DHT22;10115;50.906;4.438;2023-03-16T01:46:39;7.40;99.90
19906;DHT22;10115;50.906;4.438;2023-03-16T01:51:41;7.30;99.90
19906;DHT22;10115;50.906;4.438;2023-03-16T01:54:22;7.40;99.90
19906;DHT22;10115;50.906;4.438;2023-03-16T01:56:54;7.50;99.90
19906;DHT22;10115;50.906;4.438;2023-03-16T01:59:24;7.30;99.90
19906;DHT22;10115;50.906;4.438;2023-03-16T02:01:52;7.40;99.90
19906;DHT22;10115;50.906;4.438;2023-03-16T02:06:59;7.60;99.90
19906;DHT22;10115;50.906;4.438;2023-03-16T02:09:25;7.50;99.90
19906;DHT22;10115;50.906;4.438;2023-03-16T02:11:52;7.40;99.90
19906;DHT22;10115;50.906;4.438;2023-03-16T02:14:18;7.30;99.90
19906;DHT22;10115;50.906;4.438;2023-03-16T02:16:44;7.20;99.90
19906;DHT22;10115;50.906;4.438;2023-03-16T02:19:23;7.30;99.90
19906;DHT22;10115;50.906;4.438;2023-03-16T02:22:02;7.30;99.90
19906;DHT22;10115;50.906;4.438;2023-03-16T02:24:29;7.20;99.90
19906;DHT22;10115;50.906;4.438;2023-03-16T02:26:58;7.20;99.90
19906;DHT22;10115;50.906;4.438;2023-03-16T02:29:41;7.10;99.90
19906;DHT22;10115;50.906;4.438;2023-03-16T02:32:08;7.30;99.90
19906;DHT22;10115;50.906;4.438;2023-03-16T02:34:34;7.30;99.90
19906;DHT22;10115;50.906;4.438;2023-03-16T02:37:01;7.30;99.90
19906;DHT22;10115;50.906;4.438;2023-03-16T02:39:27;7.30;99.90
19906;DHT22;10115;50.906;4.438;2023-03-16T02:41:53;7.10;99.90
19906;DHT22;10115;50.906;4.438;2023-03-16T02:44:24;7.10;99.90
19906;DHT22;10115;50.906;4.438;2023-03-16T02:46:55;7.00;99.90
19906;DHT22;10115;50.906;4.438;2023-03-16T02:49:36;7.00;99.90
19906;DHT22;10115;50.906;4.438;2023-03-16T02:52:08;7.00;99.90
19906;DHT22;10115;50.906;4.438;2023-03-16T02:54:34;6.90;99.90
19906;DHT22;10115;50.906;4.438;2023-03-16T02:56:59;6.80;99.90
19906;DHT22;10115;50.906;4.438;2023-03-16T02:59:25;7.00;99.90
19906;DHT22;10115;50.906;4.438;2023-03-16T03:01:51;7.10;99.90
19906;DHT22;10115;50.906;4.438;2023-03-16T03:04:17;7.20;99.90
19906;DHT22;10115;50.906;4.438;2023-03-16T03:06:43;7.10;99.90
19906;DHT22;10115;50.906;4.438;2023-03-16T03:09:09;6.90;99.90
19906;DHT22;10115;50.906;4.438;2023-03-16T03:11:38;6.90;99.90
19906;DHT22;10115;50.906;4.438;2023-03-16T03:14:03;6.90;99.90
19906;DHT22;10115;50.906;4.438;2023-03-16T03:16:30;6.80;99.90
19906;DHT22;10115;50.906;4.438;2023-03-16T03:18:56;6.80;99.90
19906;DHT22;10115;50.906;4.438;2023-03-16T03:21:22;6.80;99.90
19906;DHT22;10115;50.906;4.438;2023-03-16T03:23:49;6.80;99.90
19906;DHT22;10115;50.906;4.438;2023-03-16T03:26:15;6.80;99.90
19906;DHT22;10115;50.906;4.438;2023-03-16T03:28:41;6.70;99.90
19906;DHT22;10115;50.906;4.438;2023-03-16T03:31:15;6.80;99.90
19906;DHT22;10115;50.906;4.438;2023-03-16T03:33:42;6.80;99.90
19906;DHT22;10115;50.906;4.438;2023-03-16T03:36:08;6.90;99.90
19906;DHT22;10115;50.906;4.438;2023-03-16T03:38:34;6.80;99.90
19906;DHT22;10115;50.906;4.438;2023-03-16T03:41:00;6.90;99.90
19906;DHT22;10115;50.906;4.438;2023-03-16T03:43:26;6.90;99.90
19906;DHT22;10115;50.906;4.438;2023-03-16T03:45:56;7.00;99.90
19906;DHT22;10115;50.906;4.438;2023-03-16T03:48:23;7.00;99.90
19906;DHT22;10115;50.906;4.438;2023-03-16T03:50:49;7.00;99.90
19906;DHT22;10115;50.906;4.438;2023-03-16T03:53:14;7.00;99.90
19906;DHT22;10115;50.906;4.438;2023-03-16T03:55:40;7.00;99.90
19906;DHT22;10115;50.906;4.438;2023-03-16T03:58:06;7.00;99.90
19906;DHT22;10115;50.906;4.438;2023-03-16T04:00:32;6.90;99.90
19906;DHT22;10115;50.906;4.438;2023-03-16T04:02:57;6.80;99.90
19906;DHT22;10115;50.906;4.438;2023-03-16T04:05:24;6.90;99.90
19906;DHT22;10115;50.906;4.438;2023-03-16T04:07:53;7.00;99.90
19906;DHT22;10115;50.906;4.438;2023-03-16T04:10:26;6.80;99.90
19906;DHT22;10115;50.906;4.438;2023-03-16T04:12:54;6.90;99.90
19906;DHT22;10115;50.906;4.438;2023-03-16T04:15:20;6.90;99.90
19906;DHT22;10115;50.906;4.438;2023-03-16T04:17:47;7.00;99.90
19906;DHT22;10115;50.906;4.438;2023-03-16T04:20:13;7.10;99.90
19906;DHT22;10115;50.906;4.438;2023-03-16T04:22:44;7.20;99.90
19906;DHT22;10115;50.906;4.438;2023-03-16T04:25:11;7.10;99.90
19906;DHT22;10115;50.906;4.438;2023-03-16T04:27:37;7.00;99.90
19906;DHT22;10115;50.906;4.438;2023-03-16T04:30:04;6.90;99.90
19906;DHT22;10115;50.906;4.438;2023-03-16T04:32:31;6.80;99.90
19906;DHT22;10115;50.906;4.438;2023-03-16T04:34:57;6.80;99.90
19906;DHT22;10115;50.906;4.438;2023-03-16T04:37:26;6.80;99.90
19906;DHT22;10115;50.906;4.438;2023-03-16T04:39:52;6.80;99.90
19906;DHT22;10115;50.906;4.438;2023-03-16T04:42:17;6.80;99.90
19906;DHT22;10115;50.906;4.438;2023-03-16T04:44:43;6.80;99.90
19906;DHT22;10115;50.906;4.438;2023-03-16T04:47:11;6.90;99.90
19906;DHT22;10115;50.906;4.438;2023-03-16T04:49:36;6.80;99.90
19906;DHT22;10115;50.906;4.438;2023-03-16T04:52:02;6.80;99.90
19906;DHT22;10115;50.906;4.438;2023-03-16T04:54:29;6.70;99.90
19906;DHT22;10115;50.906;4.438;2023-03-16T04:56:55;6.70;99.90
19906;DHT22;10115;50.906;4.438;2023-03-16T04:59:21;6.70;99.90
19906;DHT22;10115;50.906;4.438;2023-03-16T05:01:48;6.60;99.90
19906;DHT22;10115;50.906;4.438;2023-03-16T05:04:14;6.70;99.90
19906;DHT22;10115;50.906;4.438;2023-03-16T05:06:39;6.70;99.90
19906;DHT22;10115;50.906;4.438;2023-03-16T05:09:06;6.70;99.90
19906;DHT22;10115;50.906;4.438;2023-03-16T05:11:33;6.60;99.90
19906;DHT22;10115;50.906;4.438;2023-03-16T05:13:59;6.60;99.90
19906;DHT22;10115;50.906;4.438;2023-03-16T05:16:27;6.60;99.90
19906;DHT22;10115;50.906;4.438;2023-03-16T05:18:52;6.60;99.90
19906;DHT22;10115;50.906;4.438;2023-03-16T05:21:18;6.70;99.90
19906;DHT22;10115;50.906;4.438;2023-03-16T05:23:44;6.60;99.90
19906;DHT22;10115;50.906;4.438;2023-03-16T05:26:10;6.60;99.90
19906;DHT22;10115;50.906;4.438;2023-03-16T05:28:38;6.50;99.90
19906;DHT22;10115;50.906;4.438;2023-03-16T05:31:04;6.60;99.90
19906;DHT22;10115;50.906;4.438;2023-03-16T05:33:30;6.70;99.90
19906;DHT22;10115;50.906;4.438;2023-03-16T05:35:56;6.60;99.90
19906;DHT22;10115;50.906;4.438;2023-03-16T05:38:23;6.60;99.90
19906;DHT22;10115;50.906;4.438;2023-03-16T05:40:49;6.60;99.90
19906;DHT22;10115;50.906;4.438;2023-03-16T05:43:19;6.70;99.90
19906;DHT22;10115;50.906;4.438;2023-03-16T05:45:45;6.60;99.90
19906;DHT22;10115;50.906;4.438;2023-03-16T05:48:11;6.70;99.90
19906;DHT22;10115;50.906;4.438;2023-03-16T05:50:37;6.80;99.90
19906;DHT22;10115;50.906;4.438;2023-03-16T05:53:03;6.80;99.90
19906;DHT22;10115;50.906;4.438;2023-03-16T05:55:29;6.70;99.90
19906;DHT22;10115;50.906;4.438;2023-03-16T05:57:54;6.80;99.90
19906;DHT22;10115;50.906;4.438;2023-03-16T06:00:20;6.70;99.90
19906;DHT22;10115;50.906;4.438;2023-03-16T06:02:49;6.70;99.90
19906;DHT22;10115;50.906;4.438;2023-03-16T06:05:17;6.70;99.90
19906;DHT22;10115;50.906;4.438;2023-03-16T06:07:43;6.70;99.90
19906;DHT22;10115;50.906;4.438;2023-03-16T06:10:10;6.80;99.90
19906;DHT22;10115;50.906;4.438;2023-03-16T06:12:36;6.80;99.90
19906;DHT22;10115;50.906;4.438;2023-03-16T06:15:03;6.80;99.90
19906;DHT22;10115;50.906;4.438;2023-03-16T06:17:32;6.90;99.90
19906;DHT22;10115;50.906;4.438;2023-03-16T06:19:57;6.90;99.90
19906;DHT22;10115;50.906;4.438;2023-03-16T06:22:23;6.90;99.90
19906;DHT22;10115;50.906;4.438;2023-03-16T06:24:50;7.00;99.90
19906;DHT22;10115;50.906;4.438;2023-03-16T06:27:16;6.90;99.90
19906;DHT22;10115;50.906;4.438;2023-03-16T06:29:43;6.90;99.90
19906;DHT22;10115;50.906;4.438;2023-03-16T06:32:08;7.00;99.90
19906;DHT22;10115;50.906;4.438;2023-03-16T06:34:34;7.00;99.90
19906;DHT22;10115;50.906;4.438;2023-03-16T06:37:01;7.00;99.90
19906;DHT22;10115;50.906;4.438;2023-03-16T06:39:28;7.00;99.90
19906;DHT22;10115;50.906;4.438;2023-03-16T06:41:54;7.00;99.90
19906;DHT22;10115;50.906;4.438;2023-03-16T06:44:19;7.10;99.90
19906;DHT22;10115;50.906;4.438;2023-03-16T06:46:45;7.10;99.90
19906;DHT22;10115;50.906;4.438;2023-03-16T06:49:11;7.10;99.90
19906;DHT22;10115;50.906;4.438;2023-03-16T06:51:37;7.20;99.90
19906;DHT22;10115;50.906;4.438;2023-03-16T06:54:02;7.20;99.90
19906;DHT22;10115;50.906;4.438;2023-03-16T06:56:28;7.20;99.90
19906;DHT22;10115;50.906;4.438;2023-03-16T06:58:56;7.30;99.90
19906;DHT22;10115;50.906;4.438;2023-03-16T07:01:22;7.40;99.90
19906;DHT22;10115;50.906;4.438;2023-03-16T07:03:48;7.40;99.90
19906;DHT22;10115;50.906;4.438;2023-03-16T07:06:14;7.50;99.90
19906;DHT22;10115;50.906;4.438;2023-03-16T07:08:39;7.60;99.90
19906;DHT22;10115;50.906;4.438;2023-03-16T07:11:07;7.60;99.90
19906;DHT22;10115;50.906;4.438;2023-03-16T07:13:33;7.60;99.90
19906;DHT22;10115;50.906;4.438;2023-03-16T07:16:00;7.70;99.90
19906;DHT22;10115;50.906;4.438;2023-03-16T07:18:26;7.70;99.90
19906;DHT22;10115;50.906;4.438;2023-03-16T07:20:52;7.70;99.90
19906;DHT22;10115;50.906;4.438;2023-03-16T07:23:19;7.70;99.90
19906;DHT22;10115;50.906;4.438;2023-03-16T07:25:44;7.70;99.90
19906;DHT22;10115;50.906;4.438;2023-03-16T07:28:10;7.70;99.90
19906;DHT22;10115;50.906;4.438;2023-03-16T07:30:36;7.80;99.90
19906;DHT22;10115;50.906;4.438;2023-03-16T07:33:02;7.80;99.90
19906;DHT22;10115;50.906;4.438;2023-03-16T07:35:28;7.80;99.90
19906;DHT22;10115;50.906;4.438;2023-03-16T07:37:54;8.00;99.90
19906;DHT22;10115;50.906;4.438;2023-03-16T07:40:20;7.80;99.90
19906;DHT22;10115;50.906;4.438;2023-03-16T07:42:45;8.00;99.90
19906;DHT22;10115;50.906;4.438;2023-03-16T07:45:11;8.10;99.90
19906;DHT22;10115;50.906;4.438;2023-03-16T07:47:37;8.10;99.90
19906;DHT22;10115;50.906;4.438;2023-03-16T07:50:03;8.30;99.90
19906;DHT22;10115;50.906;4.438;2023-03-16T07:52:29;8.50;99.90
19906;DHT22;10115;50.906;4.438;2023-03-16T07:54:55;8.60;99.90
19906;DHT22;10115;50.906;4.438;2023-03-16T07:57:21;8.80;99.90
19906;DHT22;10115;50.906;4.438;2023-03-16T07:59:47;8.80;99.90
19906;DHT22;10115;50.906;4.438;2023-03-16T08:02:15;9.00;99.90
19906;DHT22;10115;50.906;4.438;2023-03-16T08:04:41;9.00;99.90
19906;DHT22;10115;50.906;4.438;2023-03-16T08:07:10;9.20;99.90
19906;DHT22;10115;50.906;4.438;2023-03-16T08:09:36;9.20;99.90
19906;DHT22;10115;50.906;4.438;2023-03-16T08:12:03;9.20;99.90
19906;DHT22;10115;50.906;4.438;2023-03-16T08:14:30;9.10;99.90
19906;DHT22;10115;50.906;4.438;2023-03-16T08:16:59;9.40;99.90
19906;DHT22;10115;50.906;4.438;2023-03-16T08:19:25;9.30;99.90
19906;DHT22;10115;50.906;4.438;2023-03-16T08:21:52;9.40;99.90
19906;DHT22;10115;50.906;4.438;2023-03-16T08:24:18;9.40;99.90
19906;DHT22;10115;50.906;4.438;2023-03-16T08:26:43;9.30;99.90
19906;DHT22;10115;50.906;4.438;2023-03-16T08:29:09;9.60;99.90
19906;DHT22;10115;50.906;4.438;2023-03-16T08:31:35;9.80;99.90
19906;DHT22;10115;50.906;4.438;2023-03-16T08:34:01;9.90;99.90
19906;DHT22;10115;50.906;4.438;2023-03-16T08:36:28;9.90;99.90
19906;DHT22;10115;50.906;4.438;2023-03-16T08:38:54;9.90;99.90
19906;DHT22;10115;50.906;4.438;2023-03-16T08:41:21;10.00;99.90
19906;DHT22;10115;50.906;4.438;2023-03-16T08:43:47;10.20;99.90
19906;DHT22;10115;50.906;4.438;2023-03-16T08:46:13;10.20;99.90
19906;DHT22;10115;50.906;4.438;2023-03-16T08:48:40;10.40;99.90
19906;DHT22;10115;50.906;4.438;2023-03-16T08:51:07;10.60;99.90
19906;DHT22;10115;50.906;4.438;2023-03-16T08:53:33;10.90;99.90
19906;DHT22;10115;50.906;4.438;2023-03-16T08:56:12;11.30;99.90
19906;DHT22;10115;50.906;4.438;2023-03-16T08:58:40;11.00;99.90
19906;DHT22;10115;50.906;4.438;2023-03-16T09:01:11;11.00;99.90
19906;DHT22;10115;50.906;4.438;2023-03-16T09:03:38;10.90;99.90
19906;DHT22;10115;50.906;4.438;2023-03-16T09:06:06;11.00;99.90
19906;DHT22;10115;50.906;4.438;2023-03-16T09:08:34;11.00;99.90
19906;DHT22;10115;50.906;4.438;2023-03-16T09:11:02;10.90;99.90
19906;DHT22;10115;50.906;4.438;2023-03-16T09:13:29;11.10;99.90
19906;DHT22;10115;50.906;4.438;2023-03-16T09:15:55;11.10;99.90
19906;DHT22;10115;50.906;4.438;2023-03-16T09:18:22;11.10;99.90
19906;DHT22;10115;50.906;4.438;2023-03-16T09:20:48;11.30;99.90
19906;DHT22;10115;50.906;4.438;2023-03-16T09:23:14;11.20;99.90
19906;DHT22;10115;50.906;4.438;2023-03-16T09:25:40;11.40;99.90
19906;DHT22;10115;50.906;4.438;2023-03-16T09:33:16;11.40;99.90
19906;DHT22;10115;50.906;4.438;2023-03-16T09:35:46;11.20;99.90
19906;DHT22;10115;50.906;4.438;2023-03-16T09:38:12;11.10;99.90
19906;DHT22;10115;50.906;4.438;2023-03-16T09:40:38;11.40;99.90
19906;DHT22;10115;50.906;4.438;2023-03-16T09:46:30;11.50;99.90
19906;DHT22;10115;50.906;4.438;2023-03-16T09:48:57;11.50;99.90
19906;DHT22;10115;50.906;4.438;2023-03-16T09:51:43;11.50;99.90
19906;DHT22;10115;50.906;4.438;2023-03-16T09:56:59;11.60;99.90
19906;DHT22;10115;50.906;4.438;2023-03-16T09:59:26;11.50;99.90
19906;DHT22;10115;50.906;4.438;2023-03-16T10:05:14;11.50;99.90
19906;DHT22;10115;50.906;4.438;2023-03-16T10:16:20;11.40;99.90
19906;DHT22;10115;50.906;4.438;2023-03-16T10:18:49;11.50;99.90
19906;DHT22;10115;50.906;4.438;2023-03-16T10:21:18;11.60;99.90
19906;DHT22;10115;50.906;4.438;2023-03-16T10:23:47;11.80;99.90
19906;DHT22;10115;50.906;4.438;2023-03-16T10:26:21;11.90;99.90
19906;DHT22;10115;50.906;4.438;2023-03-16T10:28:48;11.90;99.90
19906;DHT22;10115;50.906;4.438;2023-03-16T10:31:16;12.10;99.90
19906;DHT22;10115;50.906;4.438;2023-03-16T10:33:42;12.10;99.90
19906;DHT22;10115;50.906;4.438;2023-03-16T10:36:27;12.30;99.90
19906;DHT22;10115;50.906;4.438;2023-03-16T10:38:57;12.20;99.90
19906;DHT22;10115;50.906;4.438;2023-03-16T10:41:28;12.20;99.90
19906;DHT22;10115;50.906;4.438;2023-03-16T10:49:05;12.80;99.90
19906;DHT22;10115;50.906;4.438;2023-03-16T10:51:34;12.70;99.90
19906;DHT22;10115;50.906;4.438;2023-03-16T10:54:14;13.00;99.90
19906;DHT22;10115;50.906;4.438;2023-03-16T10:56:40;13.30;99.90
19906;DHT22;10115;50.906;4.438;2023-03-16T11:01:48;13.50;99.90
19906;DHT22;10115;50.906;4.438;2023-03-16T11:04:14;13.60;99.90
19906;DHT22;10115;50.906;4.438;2023-03-16T11:06:54;13.60;99.90
19906;DHT22;10115;50.906;4.438;2023-03-16T11:09:25;13.60;99.90
19906;DHT22;10115;50.906;4.438;2023-03-16T11:11:56;13.70;99.90
19906;DHT22;10115;50.906;4.438;2023-03-16T11:14:25;13.80;99.90
19906;DHT22;10115;50.906;4.438;2023-03-16T11:19:52;13.50;99.90
19906;DHT22;10115;50.906;4.438;2023-03-16T11:22:24;13.70;99.90
19906;DHT22;10115;50.906;4.438;2023-03-16T11:27:41;13.90;99.90
19906;DHT22;10115;50.906;4.438;2023-03-16T11:30:27;13.50;99.90
19906;DHT22;10115;50.906;4.438;2023-03-16T11:32:55;13.80;99.90
19906;DHT22;10115;50.906;4.438;2023-03-16T11:38:18;13.90;99.90
19906;DHT22;10115;50.906;4.438;2023-03-16T11:41:04;14.00;99.90
19906;DHT22;10115;50.906;4.438;2023-03-16T11:44:01;14.20;99.90
19906;DHT22;10115;50.906;4.438;2023-03-16T11:46:46;14.10;99.90
19906;DHT22;10115;50.906;4.438;2023-03-16T11:55:31;14.10;99.90
19906;DHT22;10115;50.906;4.438;2023-03-16T12:09:03;13.80;99.90
19906;DHT22;10115;50.906;4.438;2023-03-16T12:11:47;13.90;99.90
19906;DHT22;10115;50.906;4.438;2023-03-16T12:14:34;13.80;99.90
19906;DHT22;10115;50.906;4.438;2023-03-16T12:24:57;13.80;99.90
19906;DHT22;10115;50.906;4.438;2023-03-16T12:27:28;13.90;99.90
19906;DHT22;10115;50.906;4.438;2023-03-16T12:35:32;14.30;99.90
19906;DHT22;10115;50.906;4.438;2023-03-16T12:38:31;14.50;99.90
19906;DHT22;10115;50.906;4.438;2023-03-16T12:41:08;14.50;99.90
19906;DHT22;10115;50.906;4.438;2023-03-16T12:46:18;14.40;99.90
19906;DHT22;10115;50.906;4.438;2023-03-16T12:48:51;14.60;99.90
19906;DHT22;10115;50.906;4.438;2023-03-16T12:51:18;14.90;99.90
19906;DHT22;10115;50.906;4.438;2023-03-16T12:56:18;15.10;99.90
19906;DHT22;10115;50.906;4.438;2023-03-16T12:58:46;15.20;99.90
19906;DHT22;10115;50.906;4.438;2023-03-16T13:01:17;15.30;99.90
19906;DHT22;10115;50.906;4.438;2023-03-16T13:03:49;15.40;99.90
19906;DHT22;10115;50.906;4.438;2023-03-16T13:06:17;15.40;99.90
19906;DHT22;10115;50.906;4.438;2023-03-16T13:08:49;15.30;99.90
19906;DHT22;10115;50.906;4.438;2023-03-16T13:11:16;15.40;99.90
19906;DHT22;10115;50.906;4.438;2023-03-16T13:14:04;15.30;99.90
19906;DHT22;10115;50.906;4.438;2023-03-16T13:16:38;15.20;99.90
19906;DHT22;10115;50.906;4.438;2023-03-16T13:21:47;15.50;99.90
19906;DHT22;10115;50.906;4.438;2023-03-16T13:24:35;15.40;99.90
19906;DHT22;10115;50.906;4.438;2023-03-16T13:27:26;15.50;99.90
19906;DHT22;10115;50.906;4.438;2023-03-16T13:29:58;15.60;99.90
19906;DHT22;10115;50.906;4.438;2023-03-16T13:32:25;15.50;99.90
19906;DHT22;10115;50.906;4.438;2023-03-16T13:34:58;15.60;99.90
19906;DHT22;10115;50.906;4.438;2023-03-16T13:37:26;15.80;99.90
19906;DHT22;10115;50.906;4.438;2023-03-16T13:39:53;15.70;99.90
19906;DHT22;10115;50.906;4.438;2023-03-16T13:42:21;15.80;99.90
19906;DHT22;10115;50.906;4.438;2023-03-16T13:44:51;16.00;99.90
19906;DHT22;10115;50.906;4.438;2023-03-16T13:47:18;16.40;99.90
19906;DHT22;10115;50.906;4.438;2023-03-16T13:49:46;17.00;99.90
19906;DHT22;10115;50.906;4.438;2023-03-16T13:52:20;17.30;99.90
19906;DHT22;10115;50.906;4.438;2023-03-16T13:54:48;17.50;99.90
19906;DHT22;10115;50.906;4.438;2023-03-16T13:57:15;17.90;99.90
19906;DHT22;10115;50.906;4.438;2023-03-16T13:59:43;18.40;99.90
19906;DHT22;10115;50.906;4.438;2023-03-16T14:02:18;18.90;99.90
19906;DHT22;10115;50.906;4.438;2023-03-16T14:04:43;18.80;99.90
19906;DHT22;10115;50.906;4.438;2023-03-16T14:07:17;18.60;99.90
19906;DHT22;10115;50.906;4.438;2023-03-16T14:09:44;19.10;99.90
19906;DHT22;10115;50.906;4.438;2023-03-16T14:12:16;19.70;99.90
19906;DHT22;10115;50.906;4.438;2023-03-16T14:14:46;19.70;99.90
19906;DHT22;10115;50.906;4.438;2023-03-16T14:17:19;20.20;99.90
19906;DHT22;10115;50.906;4.438;2023-03-16T14:19:51;21.10;99.90
19906;DHT22;10115;50.906;4.438;2023-03-16T14:22:23;20.20;99.90
19906;DHT22;10115;50.906;4.438;2023-03-16T14:24:57;20.00;99.90
19906;DHT22;10115;50.906;4.438;2023-03-16T14:27:40;20.30;99.40
19906;DHT22;10115;50.906;4.438;2023-03-16T14:30:20;20.80;97.90
19906;DHT22;10115;50.906;4.438;2023-03-16T14:35:21;18.70;97.50
19906;DHT22;10115;50.906;4.438;2023-03-16T14:37:49;17.90;98.20
19906;DHT22;10115;50.906;4.438;2023-03-16T14:40:31;17.80;99.40
19906;DHT22;10115;50.906;4.438;2023-03-16T14:43:04;17.20;99.50
19906;DHT22;10115;50.906;4.438;2023-03-16T14:45:34;16.70;99.90
19906;DHT22;10115;50.906;4.438;2023-03-16T14:48:04;16.60;99.90
19906;DHT22;10115;50.906;4.438;2023-03-16T14:50:30;16.40;99.60
19906;DHT22;10115;50.906;4.438;2023-03-16T14:52:58;16.20;99.90
19906;DHT22;10115;50.906;4.438;2023-03-16T14:55:24;16.20;99.80
19906;DHT22;10115;50.906;4.438;2023-03-16T14:57:51;17.00;98.90
19906;DHT22;10115;50.906;4.438;2023-03-16T15:00:19;18.60;99.20
19906;DHT22;10115;50.906;4.438;2023-03-16T15:02:59;20.10;98.40
19906;DHT22;10115;50.906;4.438;2023-03-16T15:05:34;20.10;98.40
19906;DHT22;10115;50.906;4.438;2023-03-16T15:08:01;20.40;97.20
19906;DHT22;10115;50.906;4.438;2023-03-16T15:10:30;20.10;96.60
19906;DHT22;10115;50.906;4.438;2023-03-16T15:12:58;20.70;96.00
19906;DHT22;10115;50.906;4.438;2023-03-16T15:15:38;19.90;95.90
19906;DHT22;10115;50.906;4.438;2023-03-16T15:18:04;19.00;95.90
19906;DHT22;10115;50.906;4.438;2023-03-16T15:20:38;19.30;98.00
19906;DHT22;10115;50.906;4.438;2023-03-16T15:23:05;20.40;96.20
19906;DHT22;10115;50.906;4.438;2023-03-16T15:25:39;20.20;94.50
19906;DHT22;10115;50.906;4.438;2023-03-16T15:30:41;21.50;94.30
19906;DHT22;10115;50.906;4.438;2023-03-16T15:33:08;22.40;92.90
19906;DHT22;10115;50.906;4.438;2023-03-16T15:35:34;21.20;92.30
19906;DHT22;10115;50.906;4.438;2023-03-16T15:38:04;21.40;92.00
19906;DHT22;10115;50.906;4.438;2023-03-16T15:40:31;21.50;91.10
19906;DHT22;10115;50.906;4.438;2023-03-16T15:42:57;21.00;91.70
19906;DHT22;10115;50.906;4.438;2023-03-16T15:45:23;20.80;92.20
19906;DHT22;10115;50.906;4.438;2023-03-16T15:47:50;20.10;91.50
19906;DHT22;10115;50.906;4.438;2023-03-16T15:50:19;19.50;92.70
19906;DHT22;10115;50.906;4.438;2023-03-16T15:52:49;19.60;93.20
19906;DHT22;10115;50.906;4.438;2023-03-16T15:57:58;18.60;93.80
19906;DHT22;10115;50.906;4.438;2023-03-16T16:00:26;18.20;93.40
19906;DHT22;10115;50.906;4.438;2023-03-16T16:02:53;17.70;95.00
19906;DHT22;10115;50.906;4.438;2023-03-16T16:05:20;17.30;94.40
19906;DHT22;10115;50.906;4.438;2023-03-16T16:07:46;17.90;93.40
19906;DHT22;10115;50.906;4.438;2023-03-16T16:10:14;18.80;93.30
19906;DHT22;10115;50.906;4.438;2023-03-16T16:12:44;19.90;93.50
19906;DHT22;10115;50.906;4.438;2023-03-16T16:15:35;20.30;91.40
19906;DHT22;10115;50.906;4.438;2023-03-16T16:18:28;20.40;91.40
19906;DHT22;10115;50.906;4.438;2023-03-16T16:20:57;19.70;91.10
19906;DHT22;10115;50.906;4.438;2023-03-16T16:23:24;19.30;91.40
19906;DHT22;10115;50.906;4.438;2023-03-16T16:25:53;19.70;90.80
19906;DHT22;10115;50.906;4.438;2023-03-16T16:28:25;19.70;91.00
19906;DHT22;10115;50.906;4.438;2023-03-16T16:30:52;19.90;91.00
19906;DHT22;10115;50.906;4.438;2023-03-16T16:33:36;19.80;91.20
19906;DHT22;10115;50.906;4.438;2023-03-16T16:36:05;18.60;90.90
19906;DHT22;10115;50.906;4.438;2023-03-16T16:38:32;18.00;92.00
19906;DHT22;10115;50.906;4.438;2023-03-16T16:41:00;17.30;92.90
19906;DHT22;10115;50.906;4.438;2023-03-16T16:43:34;16.80;92.50
19906;DHT22;10115;50.906;4.438;2023-03-16T16:46:04;16.60;93.10
19906;DHT22;10115;50.906;4.438;2023-03-16T16:48:33;16.10;93.20
19906;DHT22;10115;50.906;4.438;2023-03-16T16:51:01;15.80;93.20
19906;DHT22;10115;50.906;4.438;2023-03-16T16:53:27;15.60;94.10
19906;DHT22;10115;50.906;4.438;2023-03-16T16:55:53;15.50;94.40
19906;DHT22;10115;50.906;4.438;2023-03-16T16:58:20;15.50;93.90
19906;DHT22;10115;50.906;4.438;2023-03-16T17:00:50;15.40;94.00
19906;DHT22;10115;50.906;4.438;2023-03-16T17:03:26;15.40;94.70
19906;DHT22;10115;50.906;4.438;2023-03-16T17:05:54;15.00;94.80
19906;DHT22;10115;50.906;4.438;2023-03-16T17:08:20;14.90;94.90
19906;DHT22;10115;50.906;4.438;2023-03-16T17:10:46;14.80;95.80
19906;DHT22;10115;50.906;4.438;2023-03-16T17:13:39;14.60;96.10
19906;DHT22;10115;50.906;4.438;2023-03-16T17:16:05;14.50;96.30
19906;DHT22;10115;50.906;4.438;2023-03-16T17:18:32;14.40;96.90
19906;DHT22;10115;50.906;4.438;2023-03-16T17:20:58;14.30;97.20
19906;DHT22;10115;50.906;4.438;2023-03-16T17:23:25;14.20;97.80